sensor_id;sensor_type;location;lat;lon;timestamp;pressure;altitude;pressure_sealevel;temperature;humidity
62952;BME280;52163;52.212;-1.002;2022-12-07T00:00:49;101337.92;;;1.19;93.66
62952;BME280;52163;52.212;-1.002;2022-12-07T00:03:14;101336.36;;;1.20;93.80
62952;BME280;52163;52.212;-1.002;2022-12-07T00:05:41;101334.80;;;1.19;93.74
62952;BME280;52163;52.212;-1.002;2022-12-07T00:08:06;101331.49;;;1.17;93.52
62952;BME280;52163;52.212;-1.002;2022-12-07T00:10:33;101330.81;;;1.15;93.59
62952;BME280;52163;52.212;-1.002;2022-12-07T00:12:59;101327.52;;;1.15;93.55
62952;BME280;52163;52.212;-1.002;2022-12-07T00:15:25;101328.38;;;1.16;93.75
62952;BME280;52163;52.212;-1.002;2022-12-07T00:17:50;101326.98;;;1.15;93.62
62952;BME280;52163;52.212;-1.002;2022-12-07T00:20:16;101332.73;;;1.15;93.84
62952;BME280;52163;52.212;-1.002;2022-12-07T00:22:41;101329.79;;;1.14;93.80
62952;BME280;52163;52.212;-1.002;2022-12-07T00:25:07;101329.80;;;1.13;93.83
62952;BME280;52163;52.212;-1.002;2022-12-07T00:27:32;101335.55;;;1.11;93.69
62952;BME280;52163;52.212;-1.002;2022-12-07T00:29:58;101332.09;;;1.10;93.68
62952;BME280;52163;52.212;-1.002;2022-12-07T00:32:23;101330.19;;;1.09;93.65
62952;BME280;52163;52.212;-1.002;2022-12-07T00:34:48;101326.70;;;1.08;93.73
62952;BME280;52163;52.212;-1.002;2022-12-07T00:37:14;101328.99;;;1.06;93.61
62952;BME280;52163;52.212;-1.002;2022-12-07T00:39:39;101331.09;;;1.04;93.68
62952;BME280;52163;52.212;-1.002;2022-12-07T00:42:05;101329.02;;;1.01;93.66
62952;BME280;52163;52.212;-1.002;2022-12-07T00:44:30;101328.35;;;0.98;93.67
62952;BME280;52163;52.212;-1.002;2022-12-07T00:46:55;101326.27;;;0.96;93.67
62952;BME280;52163;52.212;-1.002;2022-12-07T00:49:21;101326.27;;;0.96;93.74
62952;BME280;52163;52.212;-1.002;2022-12-07T00:51:48;101329.41;;;0.96;93.99
62952;BME280;52163;52.212;-1.002;2022-12-07T00:54:14;101326.78;;;0.98;94.10
62952;BME280;52163;52.212;-1.002;2022-12-07T00:56:40;101326.25;;;1.00;94.18
62952;BME280;52163;52.212;-1.002;2022-12-07T00:59:06;101328.86;;;1.00;94.29
62952;BME280;52163;52.212;-1.002;2022-12-07T01:01:34;101328.35;;;0.99;93.92
62952;BME280;52163;52.212;-1.002;2022-12-07T01:04:01;101328.70;;;0.98;93.92
62952;BME280;52163;52.212;-1.002;2022-12-07T01:06:26;101322.11;;;0.94;93.84
62952;BME280;52163;52.212;-1.002;2022-12-07T01:08:53;101317.60;;;0.93;93.76
62952;BME280;52163;52.212;-1.002;2022-12-07T01:11:21;101317.41;;;0.94;93.79
62952;BME280;52163;52.212;-1.002;2022-12-07T01:13:50;101317.76;;;0.94;93.89
62952;BME280;52163;52.212;-1.002;2022-12-07T01:16:16;101318.11;;;0.95;93.92
62952;BME280;52163;52.212;-1.002;2022-12-07T01:18:45;101320.20;;;0.93;93.84
62952;BME280;52163;52.212;-1.002;2022-12-07T01:21:14;101323.17;;;0.91;93.82
62952;BME280;52163;52.212;-1.002;2022-12-07T01:23:40;101321.48;;;0.86;93.34
62952;BME280;52163;52.212;-1.002;2022-12-07T01:26:09;101320.45;;;0.82;93.38
62952;BME280;52163;52.212;-1.002;2022-12-07T01:28:34;101322.21;;;0.80;93.41
62952;BME280;52163;52.212;-1.002;2022-12-07T01:31:09;101316.83;;;0.79;93.54
62952;BME280;52163;52.212;-1.002;2022-12-07T01:33:41;101317.52;;;0.80;93.76
62952;BME280;52163;52.212;-1.002;2022-12-07T01:36:20;101321.86;;;0.80;93.79
62952;BME280;52163;52.212;-1.002;2022-12-07T01:38:47;101319.62;;;0.78;93.68
62952;BME280;52163;52.212;-1.002;2022-12-07T01:41:13;101322.61;;;0.76;93.67
62952;BME280;52163;52.212;-1.002;2022-12-07T01:46:45;101317.05;;;0.70;93.39
62952;BME280;52163;52.212;-1.002;2022-12-07T01:49:28;101318.11;;;0.69;93.68
62952;BME280;52163;52.212;-1.002;2022-12-07T01:52:13;101318.80;;;0.68;93.74
62952;BME280;52163;52.212;-1.002;2022-12-07T01:54:40;101315.86;;;0.67;93.82
62952;BME280;52163;52.212;-1.002;2022-12-07T01:57:08;101313.42;;;0.66;94.09
62952;BME280;52163;52.212;-1.002;2022-12-07T01:59:34;101309.96;;;0.64;94.11
62952;BME280;52163;52.212;-1.002;2022-12-07T02:02:02;101311.89;;;0.63;93.88
62952;BME280;52163;52.212;-1.002;2022-12-07T02:04:29;101313.10;;;0.62;94.06
62952;BME280;52163;52.212;-1.002;2022-12-07T02:06:56;101311.71;;;0.62;94.00
62952;BME280;52163;52.212;-1.002;2022-12-07T02:09:23;101312.77;;;0.63;94.34
62952;BME280;52163;52.212;-1.002;2022-12-07T02:11:49;101310.31;;;0.64;94.41
62952;BME280;52163;52.212;-1.002;2022-12-07T02:14:15;101311.35;;;0.64;94.22
62952;BME280;52163;52.212;-1.002;2022-12-07T02:16:48;101309.63;;;0.63;94.52
62952;BME280;52163;52.212;-1.002;2022-12-07T02:22:01;101308.94;;;0.62;94.42
62952;BME280;52163;52.212;-1.002;2022-12-07T02:25:14;101305.64;;;0.62;94.15
62952;BME280;52163;52.212;-1.002;2022-12-07T02:27:46;101303.90;;;0.61;94.34
62952;BME280;52163;52.212;-1.002;2022-12-07T02:30:19;101305.13;;;0.61;94.37
62952;BME280;52163;52.212;-1.002;2022-12-07T02:32:56;101300.26;;;0.58;94.16
62952;BME280;52163;52.212;-1.002;2022-12-07T02:40:54;101291.63;;;0.50;94.02
62952;BME280;52163;52.212;-1.002;2022-12-07T02:43:29;101289.55;;;0.49;94.00
62952;BME280;52163;52.212;-1.002;2022-12-07T02:46:01;101289.20;;;0.48;94.14
62952;BME280;52163;52.212;-1.002;2022-12-07T02:48:28;101289.02;;;0.48;94.23
62952;BME280;52163;52.212;-1.002;2022-12-07T02:50:55;101289.72;;;0.48;94.30
62952;BME280;52163;52.212;-1.002;2022-12-07T02:53:38;101288.51;;;0.48;94.38
62952;BME280;52163;52.212;-1.002;2022-12-07T03:13:02;101275.64;;;0.47;94.49
62952;BME280;52163;52.212;-1.002;2022-12-07T03:15:36;101272.37;;;0.43;94.44
62952;BME280;52163;52.212;-1.002;2022-12-07T03:18:05;101269.77;;;0.40;94.21
62952;BME280;52163;52.212;-1.002;2022-12-07T03:20:33;101274.66;;;0.38;94.15
62952;BME280;52163;52.212;-1.002;2022-12-07T03:23:04;101272.76;;;0.37;94.24
62952;BME280;52163;52.212;-1.002;2022-12-07T03:25:29;101268.42;;;0.36;94.35
62952;BME280;52163;52.212;-1.002;2022-12-07T03:27:58;101265.81;;;0.35;94.51
62952;BME280;52163;52.212;-1.002;2022-12-07T03:30:53;101263.91;;;0.33;94.45
62952;BME280;52163;52.212;-1.002;2022-12-07T03:36:04;101257.84;;;0.32;94.44
62952;BME280;52163;52.212;-1.002;2022-12-07T03:38:42;101255.92;;;0.33;94.50
62952;BME280;52163;52.212;-1.002;2022-12-07T03:41:23;101256.44;;;0.32;94.69
62952;BME280;52163;52.212;-1.002;2022-12-07T03:43:49;101255.77;;;0.31;94.52
62952;BME280;52163;52.212;-1.002;2022-12-07T03:48:57;101264.28;;;0.29;94.69
62952;BME280;52163;52.212;-1.002;2022-12-07T03:54:36;101260.47;;;0.27;94.69
62952;BME280;52163;52.212;-1.002;2022-12-07T03:57:05;101255.26;;;0.27;94.79
62952;BME280;52163;52.212;-1.002;2022-12-07T03:59:33;101258.58;;;0.25;94.79
62952;BME280;52163;52.212;-1.002;2022-12-07T04:02:04;101255.96;;;0.24;94.93
62952;BME280;52163;52.212;-1.002;2022-12-07T04:04:30;101253.17;;;0.23;94.97
62952;BME280;52163;52.212;-1.002;2022-12-07T04:06:55;101255.27;;;0.23;95.05
62952;BME280;52163;52.212;-1.002;2022-12-07T04:09:21;101252.49;;;0.24;95.15
62952;BME280;52163;52.212;-1.002;2022-12-07T04:11:47;101250.40;;;0.26;95.19
62952;BME280;52163;52.212;-1.002;2022-12-07T04:14:12;101250.73;;;0.27;95.28
62952;BME280;52163;52.212;-1.002;2022-12-07T04:16:55;101248.84;;;0.25;95.39
62952;BME280;52163;52.212;-1.002;2022-12-07T04:19:26;101251.63;;;0.25;95.17
62952;BME280;52163;52.212;-1.002;2022-12-07T04:21:53;101256.14;;;0.23;95.27
62952;BME280;52163;52.212;-1.002;2022-12-07T04:24:19;101252.84;;;0.21;95.16
62952;BME280;52163;52.212;-1.002;2022-12-07T04:26:45;101255.29;;;0.19;95.01
62952;BME280;52163;52.212;-1.002;2022-12-07T04:29:11;101253.73;;;0.19;95.10
62952;BME280;52163;52.212;-1.002;2022-12-07T04:31:37;101253.54;;;0.20;95.26
62952;BME280;52163;52.212;-1.002;2022-12-07T04:34:03;101248.49;;;0.22;95.43
62952;BME280;52163;52.212;-1.002;2022-12-07T04:36:29;101248.16;;;0.21;95.43
62952;BME280;52163;52.212;-1.002;2022-12-07T04:38:55;101249.37;;;0.21;95.30
62952;BME280;52163;52.212;-1.002;2022-12-07T04:41:22;101251.46;;;0.19;95.15
62952;BME280;52163;52.212;-1.002;2022-12-07T04:44:00;101245.41;;;0.15;94.91
62952;BME280;52163;52.212;-1.002;2022-12-07T04:46:27;101246.46;;;0.12;94.94
62952;BME280;52163;52.212;-1.002;2022-12-07T04:48:53;101246.65;;;0.10;94.85
62952;BME280;52163;52.212;-1.002;2022-12-07T04:51:29;101239.54;;;0.08;94.92
62952;BME280;52163;52.212;-1.002;2022-12-07T04:53:56;101241.80;;;0.07;95.08
62952;BME280;52163;52.212;-1.002;2022-12-07T04:56:22;101239.04;;;0.04;94.88
62952;BME280;52163;52.212;-1.002;2022-12-07T04:58:49;101236.46;;;0.01;94.88
62952;BME280;52163;52.212;-1.002;2022-12-07T05:01:16;101239.08;;;-0.03;95.00
62952;BME280;52163;52.212;-1.002;2022-12-07T05:03:42;101243.27;;;-0.07;94.80
62952;BME280;52163;52.212;-1.002;2022-12-07T05:06:10;101236.83;;;-0.08;94.83
62952;BME280;52163;52.212;-1.002;2022-12-07T05:08:35;101240.67;;;-0.10;94.89
62952;BME280;52163;52.212;-1.002;2022-12-07T05:11:02;101242.59;;;-0.11;94.81
62952;BME280;52163;52.212;-1.002;2022-12-07T05:13:28;101244.48;;;-0.11;94.83
62952;BME280;52163;52.212;-1.002;2022-12-07T05:15:54;101235.83;;;-0.13;94.95
62952;BME280;52163;52.212;-1.002;2022-12-07T05:18:19;101240.52;;;-0.14;95.02
62952;BME280;52163;52.212;-1.002;2022-12-07T05:20:45;101240.53;;;-0.18;94.79
62952;BME280;52163;52.212;-1.002;2022-12-07T05:23:10;101237.41;;;-0.20;94.87
62952;BME280;52163;52.212;-1.002;2022-12-07T05:25:36;101244.20;;;-0.23;95.00
62952;BME280;52163;52.212;-1.002;2022-12-07T05:28:02;101237.77;;;-0.26;94.80
62952;BME280;52163;52.212;-1.002;2022-12-07T05:30:28;101237.24;;;-0.26;94.80
62952;BME280;52163;52.212;-1.002;2022-12-07T05:32:53;101233.27;;;-0.24;95.01
62952;BME280;52163;52.212;-1.002;2022-12-07T05:35:19;101232.03;;;-0.20;95.30
62952;BME280;52163;52.212;-1.002;2022-12-07T05:37:45;101230.27;;;-0.14;95.53
62952;BME280;52163;52.212;-1.002;2022-12-07T05:40:12;101228.00;;;-0.13;95.11
62952;BME280;52163;52.212;-1.002;2022-12-07T05:42:39;101225.92;;;-0.12;94.92
62952;BME280;52163;52.212;-1.002;2022-12-07T05:45:05;101230.79;;;-0.13;94.78
62952;BME280;52163;52.212;-1.002;2022-12-07T05:47:31;101227.31;;;-0.13;94.73
62952;BME280;52163;52.212;-1.002;2022-12-07T05:49:56;101230.64;;;-0.16;94.55
62952;BME280;52163;52.212;-1.002;2022-12-07T05:52:22;101234.96;;;-0.19;94.50
62952;BME280;52163;52.212;-1.002;2022-12-07T05:54:48;101227.17;;;-0.20;94.50
62952;BME280;52163;52.212;-1.002;2022-12-07T05:57:13;101224.91;;;-0.20;94.49
62952;BME280;52163;52.212;-1.002;2022-12-07T05:59:38;101223.88;;;-0.20;94.52
62952;BME280;52163;52.212;-1.002;2022-12-07T06:02:07;101219.17;;;-0.19;94.84
62952;BME280;52163;52.212;-1.002;2022-12-07T06:04:35;101211.18;;;-0.17;94.94
62952;BME280;52163;52.212;-1.002;2022-12-07T06:07:01;101212.73;;;-0.16;94.94
62952;BME280;52163;52.212;-1.002;2022-12-07T06:09:28;101211.87;;;-0.17;94.93
62952;BME280;52163;52.212;-1.002;2022-12-07T06:11:54;101210.67;;;-0.19;94.76
62952;BME280;52163;52.212;-1.002;2022-12-07T06:14:38;101210.34;;;-0.22;94.63
62952;BME280;52163;52.212;-1.002;2022-12-07T06:17:04;101209.99;;;-0.26;94.70
62952;BME280;52163;52.212;-1.002;2022-12-07T06:19:30;101205.67;;;-0.31;94.62
62952;BME280;52163;52.212;-1.002;2022-12-07T06:21:56;101204.11;;;-0.33;94.51
62952;BME280;52163;52.212;-1.002;2022-12-07T06:24:22;101210.89;;;-0.34;94.77
62952;BME280;52163;52.212;-1.002;2022-12-07T06:26:48;101207.93;;;-0.33;94.92
62952;BME280;52163;52.212;-1.002;2022-12-07T06:29:14;101206.55;;;-0.34;94.82
62952;BME280;52163;52.212;-1.002;2022-12-07T06:31:40;101210.22;;;-0.36;94.75
62952;BME280;52163;52.212;-1.002;2022-12-07T06:34:11;101213.69;;;-0.39;94.66
62952;BME280;52163;52.212;-1.002;2022-12-07T06:36:37;101217.00;;;-0.41;94.49
62952;BME280;52163;52.212;-1.002;2022-12-07T06:39:03;101211.45;;;-0.44;94.49
62952;BME280;52163;52.212;-1.002;2022-12-07T06:41:29;101215.46;;;-0.46;94.40
62952;BME280;52163;52.212;-1.002;2022-12-07T06:43:54;101219.80;;;-0.46;94.67
62952;BME280;52163;52.212;-1.002;2022-12-07T06:46:20;101221.70;;;-0.45;94.89
62952;BME280;52163;52.212;-1.002;2022-12-07T06:48:45;101219.09;;;-0.44;95.02
62952;BME280;52163;52.212;-1.002;2022-12-07T06:51:11;101218.06;;;-0.45;94.88
62952;BME280;52163;52.212;-1.002;2022-12-07T06:53:36;101217.72;;;-0.46;94.89
62952;BME280;52163;52.212;-1.002;2022-12-07T06:56:04;101224.14;;;-0.47;94.81
62952;BME280;52163;52.212;-1.002;2022-12-07T06:58:29;101223.96;;;-0.47;94.76
62952;BME280;52163;52.212;-1.002;2022-12-07T07:00:55;101221.38;;;-0.47;94.80
62952;BME280;52163;52.212;-1.002;2022-12-07T07:03:20;101222.92;;;-0.45;94.97
62952;BME280;52163;52.212;-1.002;2022-12-07T07:05:46;101219.95;;;-0.43;95.07
62952;BME280;52163;52.212;-1.002;2022-12-07T07:08:12;101219.96;;;-0.43;94.95
62952;BME280;52163;52.212;-1.002;2022-12-07T07:10:38;101221.19;;;-0.45;94.95
62952;BME280;52163;52.212;-1.002;2022-12-07T07:13:04;101224.66;;;-0.48;94.59
62952;BME280;52163;52.212;-1.002;2022-12-07T07:15:29;101226.06;;;-0.53;94.59
62952;BME280;52163;52.212;-1.002;2022-12-07T07:17:55;101226.94;;;-0.55;94.53
62952;BME280;52163;52.212;-1.002;2022-12-07T07:20:21;101226.94;;;-0.57;94.41
62952;BME280;52163;52.212;-1.002;2022-12-07T07:22:48;101225.55;;;-0.56;94.61
62952;BME280;52163;52.212;-1.002;2022-12-07T07:25:14;101224.51;;;-0.54;94.84
62952;BME280;52163;52.212;-1.002;2022-12-07T07:27:40;101227.98;;;-0.52;94.89
62952;BME280;52163;52.212;-1.002;2022-12-07T07:30:07;101226.77;;;-0.55;94.50
62952;BME280;52163;52.212;-1.002;2022-12-07T07:32:33;101223.14;;;-0.60;94.01
62952;BME280;52163;52.212;-1.002;2022-12-07T07:34:58;101221.95;;;-0.66;93.98
62952;BME280;52163;52.212;-1.002;2022-12-07T07:37:24;101223.51;;;-0.72;93.79
62952;BME280;52163;52.212;-1.002;2022-12-07T07:39:50;101223.52;;;-0.79;93.89
62952;BME280;52163;52.212;-1.002;2022-12-07T07:42:15;101223.69;;;-0.82;94.11
62952;BME280;52163;52.212;-1.002;2022-12-07T07:44:41;101226.14;;;-0.86;93.95
62952;BME280;52163;52.212;-1.002;2022-12-07T07:47:06;101225.45;;;-0.86;94.30
62952;BME280;52163;52.212;-1.002;2022-12-07T07:49:31;101222.66;;;-0.83;94.65
62952;BME280;52163;52.212;-1.002;2022-12-07T07:51:57;101222.48;;;-0.81;94.63
62952;BME280;52163;52.212;-1.002;2022-12-07T07:54:22;101221.43;;;-0.77;94.98
62952;BME280;52163;52.212;-1.002;2022-12-07T07:56:48;101217.95;;;-0.74;94.86
62952;BME280;52163;52.212;-1.002;2022-12-07T07:59:14;101220.74;;;-0.71;94.75
62952;BME280;52163;52.212;-1.002;2022-12-07T08:01:40;101218.48;;;-0.71;94.45
62952;BME280;52163;52.212;-1.002;2022-12-07T08:04:06;101216.57;;;-0.74;94.44
62952;BME280;52163;52.212;-1.002;2022-12-07T08:06:31;101220.39;;;-0.76;94.32
62952;BME280;52163;52.212;-1.002;2022-12-07T08:08:56;101229.40;;;-0.75;94.49
62952;BME280;52163;52.212;-1.002;2022-12-07T08:11:23;101231.48;;;-0.73;94.59
62952;BME280;52163;52.212;-1.002;2022-12-07T08:13:49;101232.19;;;-0.70;94.80
62952;BME280;52163;52.212;-1.002;2022-12-07T08:16:15;101232.36;;;-0.69;94.64
62952;BME280;52163;52.212;-1.002;2022-12-07T08:18:41;101233.23;;;-0.70;94.40
62952;BME280;52163;52.212;-1.002;2022-12-07T08:21:10;101234.63;;;-0.70;94.56
62952;BME280;52163;52.212;-1.002;2022-12-07T08:23:37;101234.27;;;-0.69;94.38
62952;BME280;52163;52.212;-1.002;2022-12-07T08:26:08;101236.36;;;-0.71;94.31
62952;BME280;52163;52.212;-1.002;2022-12-07T08:28:33;101234.79;;;-0.72;94.21
62952;BME280;52163;52.212;-1.002;2022-12-07T08:31:05;101228.36;;;-0.73;94.23
62952;BME280;52163;52.212;-1.002;2022-12-07T08:33:31;101229.42;;;-0.71;94.27
62952;BME280;52163;52.212;-1.002;2022-12-07T08:36:08;101226.29;;;-0.69;94.40
62952;BME280;52163;52.212;-1.002;2022-12-07T08:38:35;101229.22;;;-0.63;94.61
62952;BME280;52163;52.212;-1.002;2022-12-07T08:41:01;101230.93;;;-0.56;94.86
62952;BME280;52163;52.212;-1.002;2022-12-07T08:43:27;101230.73;;;-0.52;94.81
62952;BME280;52163;52.212;-1.002;2022-12-07T08:46:15;101229.52;;;-0.48;94.57
62952;BME280;52163;52.212;-1.002;2022-12-07T08:48:52;101226.75;;;-0.47;94.32
62952;BME280;52163;52.212;-1.002;2022-12-07T08:51:21;101221.89;;;-0.45;94.31
62952;BME280;52163;52.212;-1.002;2022-12-07T08:53:48;101221.18;;;-0.43;94.22
62952;BME280;52163;52.212;-1.002;2022-12-07T08:56:14;101218.04;;;-0.41;94.15
62952;BME280;52163;52.212;-1.002;2022-12-07T08:58:40;101217.86;;;-0.38;94.19
62952;BME280;52163;52.212;-1.002;2022-12-07T09:01:06;101218.02;;;-0.35;94.12
62952;BME280;52163;52.212;-1.002;2022-12-07T09:03:31;101212.27;;;-0.32;94.13
62952;BME280;52163;52.212;-1.002;2022-12-07T09:05:58;101212.27;;;-0.28;94.26
62952;BME280;52163;52.212;-1.002;2022-12-07T09:08:27;101203.91;;;-0.25;94.23
62952;BME280;52163;52.212;-1.002;2022-12-07T09:10:54;101202.36;;;-0.23;94.17
62952;BME280;52163;52.212;-1.002;2022-12-07T09:13:19;101207.56;;;-0.21;94.05
62952;BME280;52163;52.212;-1.002;2022-12-07T09:15:45;101211.52;;;-0.19;94.04
62952;BME280;52163;52.212;-1.002;2022-12-07T09:18:10;101211.16;;;-0.14;93.98
62952;BME280;52163;52.212;-1.002;2022-12-07T09:20:35;101213.56;;;-0.09;94.20
62952;BME280;52163;52.212;-1.002;2022-12-07T09:23:01;101218.05;;;-0.05;94.24
62952;BME280;52163;52.212;-1.002;2022-12-07T09:25:26;101215.77;;;-0.01;94.08
62952;BME280;52163;52.212;-1.002;2022-12-07T09:27:56;101215.60;;;0.02;94.12
62952;BME280;52163;52.212;-1.002;2022-12-07T09:30:22;101215.58;;;0.06;93.92
62952;BME280;52163;52.212;-1.002;2022-12-07T09:32:47;101214.19;;;0.06;93.66
62952;BME280;52163;52.212;-1.002;2022-12-07T09:35:13;101212.44;;;0.08;93.51
62952;BME280;52163;52.212;-1.002;2022-12-07T09:37:38;101214.67;;;0.11;93.65
62952;BME280;52163;52.212;-1.002;2022-12-07T09:40:04;101215.68;;;0.16;93.75
62952;BME280;52163;52.212;-1.002;2022-12-07T09:42:38;101210.96;;;0.20;93.78
62952;BME280;52163;52.212;-1.002;2022-12-07T09:45:10;101213.91;;;0.24;93.39
62952;BME280;52163;52.212;-1.002;2022-12-07T09:47:37;101209.58;;;0.24;93.30
62952;BME280;52163;52.212;-1.002;2022-12-07T09:50:14;101211.83;;;0.25;93.32
62952;BME280;52163;52.212;-1.002;2022-12-07T09:52:41;101213.91;;;0.26;93.33
62952;BME280;52163;52.212;-1.002;2022-12-07T09:55:28;101211.64;;;0.26;93.14
62952;BME280;52163;52.212;-1.002;2022-12-07T09:57:55;101211.10;;;0.29;93.10
62952;BME280;52163;52.212;-1.002;2022-12-07T10:00:22;101212.98;;;0.34;93.29
62952;BME280;52163;52.212;-1.002;2022-12-07T10:02:59;101216.60;;;0.38;93.34
62952;BME280;52163;52.212;-1.002;2022-12-07T10:05:38;101212.21;;;0.42;93.39
62952;BME280;52163;52.212;-1.002;2022-12-07T10:08:05;101207.14;;;0.47;93.20
62952;BME280;52163;52.212;-1.002;2022-12-07T10:10:32;101206.27;;;0.49;93.13
62952;BME280;52163;52.212;-1.002;2022-12-07T10:13:04;101205.55;;;0.51;93.07
62952;BME280;52163;52.212;-1.002;2022-12-07T10:15:54;101201.85;;;0.56;92.87
62952;BME280;52163;52.212;-1.002;2022-12-07T10:18:35;101202.65;;;0.65;93.23
62952;BME280;52163;52.212;-1.002;2022-12-07T10:21:14;101205.36;;;0.75;93.01
62952;BME280;52163;52.212;-1.002;2022-12-07T10:24:05;101202.31;;;0.85;93.00
62952;BME280;52163;52.212;-1.002;2022-12-07T10:26:46;101200.15;;;0.95;92.83
62952;BME280;52163;52.212;-1.002;2022-12-07T10:29:17;101195.39;;;1.01;92.35
62952;BME280;52163;52.212;-1.002;2022-12-07T10:31:45;101189.77;;;1.06;92.14
62952;BME280;52163;52.212;-1.002;2022-12-07T10:34:25;101185.34;;;1.13;92.04
62952;BME280;52163;52.212;-1.002;2022-12-07T10:36:53;101187.18;;;1.22;92.17
62952;BME280;52163;52.212;-1.002;2022-12-07T10:39:22;101184.15;;;1.29;91.59
62952;BME280;52163;52.212;-1.002;2022-12-07T10:42:00;101180.56;;;1.37;91.45
62952;BME280;52163;52.212;-1.002;2022-12-07T10:44:28;101180.26;;;1.48;91.53
62952;BME280;52163;52.212;-1.002;2022-12-07T10:52:13;101170.59;;;1.69;90.86
62952;BME280;52163;52.212;-1.002;2022-12-07T10:54:51;101165.00;;;1.72;90.45
62952;BME280;52163;52.212;-1.002;2022-12-07T10:57:46;101164.77;;;1.76;90.00
62952;BME280;52163;52.212;-1.002;2022-12-07T11:05:45;101154.61;;;1.93;89.68
62952;BME280;52163;52.212;-1.002;2022-12-07T11:08:26;101157.30;;;1.98;89.51
62952;BME280;52163;52.212;-1.002;2022-12-07T11:11:43;101156.52;;;2.05;89.15
62952;BME280;52163;52.212;-1.002;2022-12-07T11:14:31;101155.52;;;2.12;88.82
62952;BME280;52163;52.212;-1.002;2022-12-07T11:17:10;101150.73;;;2.20;88.59
62952;BME280;52163;52.212;-1.002;2022-12-07T11:19:48;101148.67;;;2.28;88.28
62952;BME280;52163;52.212;-1.002;2022-12-07T11:22:22;101142.79;;;2.36;87.96
62952;BME280;52163;52.212;-1.002;2022-12-07T11:25:06;101139.91;;;2.42;87.67
62952;BME280;52163;52.212;-1.002;2022-12-07T11:30:49;101132.64;;;2.50;87.53
62952;BME280;52163;52.212;-1.002;2022-12-07T11:33:11;101130.98;;;2.55;87.18
62952;BME280;52163;52.212;-1.002;2022-12-07T11:38:48;101114.43;;;2.63;87.08
62952;BME280;52163;52.212;-1.002;2022-12-07T11:41:22;101118.59;;;2.65;87.02
62952;BME280;52163;52.212;-1.002;2022-12-07T11:43:58;101114.73;;;2.68;86.82
62952;BME280;52163;52.212;-1.002;2022-12-07T11:46:35;101110.34;;;2.68;86.51
62952;BME280;52163;52.212;-1.002;2022-12-07T11:49:16;101106.84;;;2.69;86.57
62952;BME280;52163;52.212;-1.002;2022-12-07T11:51:45;101099.52;;;2.69;86.41
62952;BME280;52163;52.212;-1.002;2022-12-07T11:54:19;101097.77;;;2.70;86.30
62952;BME280;52163;52.212;-1.002;2022-12-07T11:56:48;101092.69;;;2.71;86.38
62952;BME280;52163;52.212;-1.002;2022-12-07T11:59:39;101087.79;;;2.71;86.30
62952;BME280;52163;52.212;-1.002;2022-12-07T12:05:02;101083.61;;;2.71;86.13
62952;BME280;52163;52.212;-1.002;2022-12-07T12:07:33;101078.34;;;2.72;85.97
62952;BME280;52163;52.212;-1.002;2022-12-07T12:10:04;101073.47;;;2.72;85.83
62952;BME280;52163;52.212;-1.002;2022-12-07T12:15:54;101064.77;;;2.79;86.16
62952;BME280;52163;52.212;-1.002;2022-12-07T12:21:33;101052.61;;;2.85;85.62
62952;BME280;52163;52.212;-1.002;2022-12-07T12:24:15;101052.26;;;2.86;85.47
62952;BME280;52163;52.212;-1.002;2022-12-07T12:26:56;101047.92;;;2.84;85.46
62952;BME280;52163;52.212;-1.002;2022-12-07T12:29:28;101045.38;;;2.81;85.29
62952;BME280;52163;52.212;-1.002;2022-12-07T12:35:35;101043.25;;;2.73;85.29
62952;BME280;52163;52.212;-1.002;2022-12-07T12:40:45;101041.71;;;2.72;85.17
62952;BME280;52163;52.212;-1.002;2022-12-07T12:43:51;101034.03;;;2.72;85.40
62952;BME280;52163;52.212;-1.002;2022-12-07T12:49:40;101021.60;;;2.65;85.03
62952;BME280;52163;52.212;-1.002;2022-12-07T12:54:59;101014.38;;;2.59;84.94
62952;BME280;52163;52.212;-1.002;2022-12-07T12:57:31;101010.20;;;2.59;85.25
62952;BME280;52163;52.212;-1.002;2022-12-07T13:00:01;101008.24;;;2.61;85.07
62952;BME280;52163;52.212;-1.002;2022-12-07T13:02:52;101004.33;;;2.65;85.09
62952;BME280;52163;52.212;-1.002;2022-12-07T13:05:29;101003.95;;;2.67;85.09
62952;BME280;52163;52.212;-1.002;2022-12-07T13:08:00;101004.63;;;2.68;84.82
62952;BME280;52163;52.212;-1.002;2022-12-07T13:15:43;101003.20;;;2.69;84.97
62952;BME280;52163;52.212;-1.002;2022-12-07T13:28:50;100978.09;;;2.70;84.39
62952;BME280;52163;52.212;-1.002;2022-12-07T13:31:39;100977.17;;;2.71;84.37
62952;BME280;52163;52.212;-1.002;2022-12-07T13:34:35;100976.14;;;2.70;84.52
62952;BME280;52163;52.212;-1.002;2022-12-07T13:37:04;100971.82;;;2.69;84.20
62952;BME280;52163;52.212;-1.002;2022-12-07T13:39:34;100968.19;;;2.67;84.02
62952;BME280;52163;52.212;-1.002;2022-12-07T13:42:09;100963.33;;;2.65;84.25
62952;BME280;52163;52.212;-1.002;2022-12-07T13:44:40;100961.98;;;2.63;83.91
62952;BME280;52163;52.212;-1.002;2022-12-07T13:47:13;100953.79;;;2.62;83.82
62952;BME280;52163;52.212;-1.002;2022-12-07T13:49:53;100947.14;;;2.63;83.87
62952;BME280;52163;52.212;-1.002;2022-12-07T13:52:29;100946.08;;;2.64;83.88
62952;BME280;52163;52.212;-1.002;2022-12-07T13:55:13;100941.17;;;2.65;84.15
62952;BME280;52163;52.212;-1.002;2022-12-07T13:57:40;100935.06;;;2.66;83.79
62952;BME280;52163;52.212;-1.002;2022-12-07T14:00:15;100936.11;;;2.65;83.76
62952;BME280;52163;52.212;-1.002;2022-12-07T14:05:34;100934.94;;;2.63;83.76
62952;BME280;52163;52.212;-1.002;2022-12-07T14:08:06;100926.54;;;2.64;83.87
62952;BME280;52163;52.212;-1.002;2022-12-07T14:13:33;100922.30;;;2.68;84.00
62952;BME280;52163;52.212;-1.002;2022-12-07T14:16:01;100918.77;;;2.69;83.56
62952;BME280;52163;52.212;-1.002;2022-12-07T14:18:37;100918.77;;;2.70;83.51
62952;BME280;52163;52.212;-1.002;2022-12-07T14:21:23;100913.03;;;2.69;83.79
62952;BME280;52163;52.212;-1.002;2022-12-07T14:26:33;100912.73;;;2.66;83.32
62952;BME280;52163;52.212;-1.002;2022-12-07T14:29:31;100906.98;;;2.65;83.02
62952;BME280;52163;52.212;-1.002;2022-12-07T14:32:13;100909.42;;;2.65;83.04
62952;BME280;52163;52.212;-1.002;2022-12-07T14:34:56;100905.39;;;2.67;82.94
62952;BME280;52163;52.212;-1.002;2022-12-07T14:37:22;100906.23;;;2.68;82.79
62952;BME280;52163;52.212;-1.002;2022-12-07T14:39:47;100908.67;;;2.69;82.55